INDIA METEOROLOGICAL DEPARTMENT, R.M.C. NEW DELHI
Dated:27 - 5 - 2018
METARS OF ALTERNATE AIRPORTS
Delhi      
VIDP 270100Z 20003KT 2800 HZ NSC 33/04 Q1001 NOSIG=
Amritsar   
VIAR 270100Z 32007KT 5000 DU SCT040 27/08 Q1001 NOSIG=
Lucknow    
VILK 270100Z 10008KT 3000 HZ FEW020 SCT100 29/26 Q1001 NOSIG=
Jaipur     
VIJP 270100Z VRB01KT 2000 HZ NSC 31/02 Q1002 NOSIG=
Ahmedabad  
VAAH 270100Z 26005KT 4000 HZ NSC 31/22 Q1002 TEMPO 3000=
Udaipur    
VAUD 270100Z 01003KT 6000 NSC 28/11 Q1005 NOSIG=
Mumbai     
VABB 270100Z 30006KT 3000 HZ SCT020 SCT025 31/27 Q1004 NOSIG=